Historyczne dane pomiarowe

Dodano dane terminowe – wersja testowa.

Dane z okresu 1951-2019

Wersja bazy: 1.34 [2019-03-16, lista zmian], aktualizacja planowana na 2019-04-15

Dane meteo z obszaru Polski uzyskane na podstawie danych udostępnionych przez Instytut Meteorologii i Gospodarki Wodnej – Państwowy Instytut Badawczy.

 

Wybierz Datę:    

       

TemperaturaWilgotnośćZachmurzenieWiatrCiśnienieWidzialnośćZjawiska
 Data    tng td wb rh cc ccl cl cm ch dir g1 g2 mslp ppp      
1999-06-18 00:00:00 16.4--- 14.4 15.288wxwxwx1wx--1013.5 990.8 0.0---wx
1999-06-18 01:00:00 16.4--- 13.0 14.481wxwxwx2wx--1013.2 990.5----wx
1999-06-18 02:00:00 15.5--- 12.8 13.984wxwxwx3wx--1013.1 990.3----wx
1999-06-18 03:00:00 14.3--- 12.8 13.491wxwxwx4wx--1013.4 990.5----wx
1999-06-18 04:00:00 14.3--- 13.5 13.895wxwxwx3wx--1013.9 991.0----wx
1999-06-18 05:00:00 14.1--- 13.3 13.695wxwxwx3wx--1014.1 991.2----wx
1999-06-18 06:00:00 13.8--- 12.8 13.294wxwxwx3wx--1014.7 991.7 0.0---wx
1999-06-18 07:00:00 14.4--- 12.9 13.591wxwxwx4wx--1014.6 991.7----wx
1999-06-18 08:00:00 14.0--- 12.8 13.393wxwxwx4wx--1015.3 992.3----wx
1999-06-18 09:00:00 14.5--- 12.8 13.590wxwxwx3wx--1015.4 992.5----wx
1999-06-18 10:00:00 14.5--- 12.6 13.489wxwxwx3wx--1015.8 992.9----wx
1999-06-18 11:00:00 14.8--- 12.8 13.688wxwxwx5wx--1015.8 992.9----wx
1999-06-18 12:00:00 15.3--- 13.1 14.087wxwxwx3wx--1016.0 993.1 0.0---wx
1999-06-18 13:00:00 15.6--- 13.3 14.286wxwxwxwx3wx--1016.0 993.1----wx
1999-06-18 14:00:00 15.8--- 13.5 14.486wxwxwxwx3wx--1016.1 993.3----wx
1999-06-18 15:00:00 16.0--- 13.7 14.686wxwxwxwx4wx--1016.1 993.3----wx
1999-06-18 16:00:00 16.0--- 14.5 15.191wxwxwxwx3wx--1016.0 993.2----wxw1
1999-06-18 17:00:00 15.7--- 14.6 15.093wxwxwxwx2wx--1016.2 993.4----wxw1
1999-06-18 18:00:00 15.2--- 14.5 14.896wxwxwx2wx--1016.5 993.6 1.1---wxw1
1999-06-18 19:00:00 14.2--- 13.9 14.098wxwxwxwx2wx--1016.9 993.9----wxw1
1999-06-18 20:00:00 14.1--- 13.8 13.998wxwxwxwx3wx--1017.2 994.2----wxw1
1999-06-18 21:00:00 13.9--- 13.6 13.798wxwxwxwx2wx--1017.3 994.3----wxw1
1999-06-18 22:00:00 13.8--- 13.5 13.698wxwxwx4wx--1017.3 994.3----wxw1
1999-06-18 23:00:00 13.4--- 13.1 13.298wxwxwx5wx--1017.2 994.1----wxw1

 

Źródłem pochodzenia danych jest Instytut Meteorologii i Gospodarki Wodnej – Państwowy Instytut Badawczy. Dane Instytutu Meteorologii i Gospodarki Wodnej – Państwowego Instytutu Badawczego zostały przetworzone.

Dane źródłowe można odnaleźć na stronie https://dane.imgw.pl